Rockville, MD (20851)

8:59 AM EST on December 18, 2014 (GMT -0500)
Twinbrook | Change Station
CLOSE
Current Station
Personal Weather Station
Location: Rockville, MD
Elevation: 377 ft
Nearby Weather Stations

Elev 377 ft 39.08 °N, 77.12 °W | Updated 1 second ago

Partly Cloudy
Partly Cloudy
33.8 °F
Feels Like 30 °F
N
4.5
Wind Variable Wind from NW
Gusts 7.6 mph

Today
High -- | Low -- °F
--% Chance of Precip.
Yesterday
High -- | Low -- °F
Precip. -- in
7:22 AM 4:47 PM
Waning Crescent, 14% visible
Pressure 30.17 in
Visibility 10.0 miles
Clouds Overcast 3500 ft
Windchill 30 °F
Dew Point 17 °F
Humidity 50%
Rainfall 0.00 in
Snow Depth Not available.
UV 0 out of 12
Pollen .10 out of 12
Air Quality Not available.
Flu Activity Not available.
METAR KGAI 181355Z 30013G18KT 10SM OVC035 01/M08 A3017 RMK AO1

More Conditions Fewer Conditions

Pressure 30.17 in
Visibility 10.0 miles
Clouds Overcast 3500 ft
Windchill 30 °F
Dew Point 17 °F
Humidity 50%
Rainfall 0.00 in
Snow Depth Not available.
UV 0 out of 12
Pollen .10 out of 12
Air Quality Not available.
Flu Activity Not available.
METAR KGAI 181355Z 30013G18KT 10SM OVC035 01/M08 A3017 RMK AO1

More Conditions Fewer Conditions

10-Day Weather Forecast

Almanac

Astronomy

Dec. 18, 2014 Rise Set
Actual Time
Civil Twilight
Nautical Twilight
Astronomical Twilight
Moon
Length of Visible Light
Length of Day
Tomorrow will be .
, % of the Moon is Illuminated

Today's Extremes

State Highs State Lows

Community

WunderPhotos

Upload Photos

1,778,928 photos uploaded!

WunderBlogs® & News

Nearby

Air Quality

  Air Quality AQ Index Pollutant
Not available.

Snow Depth

Station Depth Elevation

Earthquake Activity

City Distance Mag. Time & Date
Minimum magnitude displayed is 2.5.

Coastal Water Temperatures

Place Temperature

Nearby Weather Stations